Time;durP1;ratioP1;P1;durP2;ratioP2;P2;SDS_P1;SDS_P2;PMS_P1;PMS_P2;Temp;Humidity;BMP_temperature;BMP_pressure;BME280_temperature;BME280_humidity;BME280_pressure;Samples;Min_cycle;Max_cycle;Signal;HPM_P1;HPM_P2
2023/07/11 00:00:54;;;;;;;15.88;5.18;;;;;;;19.35;100.00;101485.94;5013372;28;20042;-68
2023/07/11 00:03:20;;;;;;;16.48;5.40;;;;;;;19.27;100.00;101488.78;5013304;28;20034;-60
2023/07/11 00:05:59;;;;;;;17.38;5.50;;;;;;;19.26;100.00;101483.47;5013264;28;20037;-60
2023/07/11 00:08:24;;;;;;;15.90;5.57;;;;;;;19.11;100.00;101482.88;5010003;28;20026;-68
2023/07/11 00:10:50;;;;;;;16.90;5.38;;;;;;;19.19;100.00;101476.47;5013533;28;20026;-67
2023/07/11 00:13:15;;;;;;;17.92;5.40;;;;;;;19.07;100.00;101477.63;5013093;28;20030;-64
2023/07/11 00:15:40;;;;;;;16.65;5.30;;;;;;;18.95;100.00;101473.41;5013151;28;20034;-63
2023/07/11 00:18:06;;;;;;;18.08;5.70;;;;;;;18.77;100.00;101470.16;5013236;28;20088;-65
2023/07/11 00:20:31;;;;;;;17.55;5.70;;;;;;;18.70;100.00;101470.28;5012971;28;20038;-63
2023/07/11 00:22:56;;;;;;;18.75;5.90;;;;;;;18.67;100.00;101465.88;5013426;28;20036;-68
2023/07/11 00:25:22;;;;;;;19.08;6.13;;;;;;;18.71;100.00;101470.28;5012993;28;20022;-66
2023/07/11 00:27:47;;;;;;;17.58;6.10;;;;;;;18.72;100.00;101471.16;5012885;28;20029;-66
2023/07/11 00:30:13;;;;;;;18.75;6.20;;;;;;;18.70;100.00;101468.50;5012963;28;20049;-68
2023/07/11 00:32:38;;;;;;;17.08;5.63;;;;;;;18.55;100.00;101463.44;5012979;28;20041;-66
2023/07/11 00:35:04;;;;;;;17.38;5.70;;;;;;;18.45;100.00;101460.94;5012832;28;20121;-62
2023/07/11 00:37:29;;;;;;;16.67;5.47;;;;;;;18.39;100.00;101458.38;5013326;28;20062;-63
2023/07/11 00:39:54;;;;;;;16.63;5.80;;;;;;;18.28;100.00;101465.72;5012773;28;20041;-67
2023/07/11 00:42:20;;;;;;;18.98;6.40;;;;;;;18.14;100.00;101467.75;5012834;28;20088;-68
2023/07/11 00:45:03;;;;;;;17.17;6.00;;;;;;;18.09;100.00;101459.81;5012897;28;20057;-68
2023/07/11 00:47:30;;;;;;;19.83;6.30;;;;;;;18.04;100.00;101461.66;5010591;28;20382;-65
2023/07/11 00:50:06;;;;;;;16.95;5.97;;;;;;;18.07;100.00;101457.16;5012706;28;20105;-67
2023/07/11 00:52:34;;;;;;;18.00;6.47;;;;;;;17.94;100.00;101459.16;5012853;28;20072;-63
2023/07/11 00:55:05;;;;;;;17.85;6.20;;;;;;;17.87;100.00;101459.25;5012884;28;20108;-68
2023/07/11 00:57:34;;;;;;;18.58;6.47;;;;;;;17.76;100.00;101462.97;5012982;28;20096;-63
2023/07/11 00:59:59;;;;;;;17.42;6.43;;;;;;;17.71;100.00;101464.84;5012821;28;20370;-65
2023/07/11 01:02:27;;;;;;;18.65;6.43;;;;;;;17.57;100.00;101469.50;5012679;28;20026;-63
2023/07/11 01:04:53;;;;;;;18.05;6.50;;;;;;;17.54;100.00;101467.75;5014017;28;20373;-64
2023/07/11 01:07:23;;;;;;;18.15;6.25;;;;;;;17.50;100.00;101465.16;5016507;28;20496;-61
2023/07/11 01:09:48;;;;;;;19.15;6.63;;;;;;;17.33;100.00;101466.28;5016444;28;20101;-66
2023/07/11 01:12:14;;;;;;;18.05;6.35;;;;;;;17.39;100.00;101468.88;5016839;28;20045;-68
2023/07/11 01:14:43;;;;;;;18.38;6.45;;;;;;;17.40;100.00;101472.41;5016420;28;20037;-65
2023/07/11 01:17:25;;;;;;;17.17;6.50;;;;;;;17.45;100.00;101469.72;5016381;28;20026;-68
2023/07/11 01:19:51;;;;;;;18.83;6.50;;;;;;;17.50;100.00;101460.69;5012720;28;20451;-67
2023/07/11 01:22:16;;;;;;;17.05;5.80;;;;;;;17.54;100.00;101458.88;5016469;28;20169;-61
2023/07/11 01:24:42;;;;;;;17.98;6.22;;;;;;;17.46;100.00;101453.66;5016230;28;20046;-64
2023/07/11 01:27:07;;;;;;;19.75;6.18;;;;;;;17.48;100.00;101457.16;5016389;28;20079;-67
2023/07/11 01:29:33;;;;;;;19.77;6.45;;;;;;;17.43;100.00;101459.03;5015951;28;20045;-68
2023/07/11 01:31:58;;;;;;;18.23;6.18;;;;;;;17.25;100.00;101453.03;5016359;28;20034;-61
2023/07/11 01:34:25;;;;;;;17.60;6.20;;;;;;;17.22;100.00;101453.06;5016525;28;20030;-66
2023/07/11 01:36:50;;;;;;;17.77;6.53;;;;;;;17.05;100.00;101445.31;5016005;28;20108;-68
2023/07/11 01:39:16;;;;;;;19.63;6.60;;;;;;;17.07;100.00;101439.94;5015808;28;20149;-66
2023/07/11 01:41:42;;;;;;;17.67;6.50;;;;;;;17.02;100.00;101444.44;5016143;28;20091;-67
2023/07/11 01:44:10;;;;;;;16.08;5.80;;;;;;;16.96;100.00;101436.50;5015920;28;20018;-70
2023/07/11 01:46:35;;;;;;;18.10;6.05;;;;;;;16.93;100.00;101429.41;5015875;28;20105;-69
2023/07/11 01:49:02;;;;;;;17.38;5.82;;;;;;;16.93;100.00;101426.75;5015961;28;20152;-70
2023/07/11 01:51:27;;;;;;;16.10;5.90;;;;;;;16.87;100.00;101427.72;5015669;28;20030;-69
2023/07/11 01:53:53;;;;;;;18.85;6.25;;;;;;;16.89;100.00;101425.00;5015653;28;20026;-69
2023/07/11 01:56:18;;;;;;;19.35;6.10;;;;;;;16.97;100.00;101422.25;5015778;28;20061;-70
2023/07/11 01:58:43;;;;;;;18.73;6.00;;;;;;;17.00;100.00;101423.09;5015466;28;20065;-70
2023/07/11 02:01:09;;;;;;;19.27;7.38;;;;;;;16.94;100.00;101414.31;5015492;28;20026;-70
2023/07/11 02:03:34;;;;;;;17.17;6.30;;;;;;;16.82;100.00;101412.59;5015702;28;20110;-70
2023/07/11 02:05:59;;;;;;;17.08;6.40;;;;;;;16.76;100.00;101412.69;4981637;28;20034;-70
2023/07/11 02:08:25;;;;;;;18.38;6.70;;;;;;;16.73;100.00;101405.59;5015664;28;20025;-69
2023/07/11 02:10:51;;;;;;;18.55;7.40;;;;;;;16.71;100.00;101408.28;5015651;28;20404;-70
2023/07/11 02:13:16;;;;;;;19.52;7.22;;;;;;;16.66;100.00;101406.56;5015246;28;20030;-70
2023/07/11 02:15:41;;;;;;;18.70;6.82;;;;;;;16.62;100.00;101404.88;5014852;28;20037;-70
2023/07/11 02:18:08;;;;;;;17.50;6.85;;;;;;;16.60;100.00;101391.53;5015212;28;20026;-69
2023/07/11 02:20:38;;;;;;;18.80;6.53;;;;;;;16.69;100.00;101394.09;5015153;28;20018;-69
2023/07/11 02:23:04;;;;;;;18.95;6.95;;;;;;;16.56;100.00;101390.69;5015275;28;20030;-69
2023/07/11 02:25:29;;;;;;;19.10;7.30;;;;;;;16.51;100.00;101384.53;5015341;28;20125;-70
2023/07/11 02:27:54;;;;;;;18.60;7.18;;;;;;;16.48;100.00;101386.34;5014974;28;20050;-68
2023/07/11 02:30:20;;;;;;;19.38;7.20;;;;;;;16.33;100.00;101377.59;5015032;28;20054;-67
2023/07/11 02:32:45;;;;;;;17.98;7.03;;;;;;;16.32;100.00;101381.16;5015101;28;20060;-67
2023/07/11 02:35:10;;;;;;;18.95;7.07;;;;;;;16.34;100.00;101376.72;5014889;28;20062;-68
2023/07/11 02:37:36;;;;;;;18.50;6.53;;;;;;;16.37;100.00;101381.13;5015025;28;20477;-68
2023/07/11 02:40:01;;;;;;;19.13;6.85;;;;;;;16.43;100.00;101372.19;5014736;28;20117;-68
2023/07/11 02:42:26;;;;;;;19.25;7.60;;;;;;;16.34;100.00;101373.16;5014669;28;20389;-68
2023/07/11 02:44:52;;;;;;;18.15;6.72;;;;;;;16.30;100.00;101363.44;5014824;28;20033;-69
2023/07/11 02:47:17;;;;;;;18.70;7.25;;;;;;;16.29;100.00;101362.53;5014633;28;20034;-68
2023/07/11 02:49:43;;;;;;;19.15;6.88;;;;;;;16.21;100.00;101357.28;5014852;28;20063;-69
2023/07/11 02:52:10;;;;;;;18.00;6.85;;;;;;;16.14;100.00;101352.91;5014750;28;20105;-69
2023/07/11 02:54:36;;;;;;;19.55;7.13;;;;;;;16.12;100.00;101356.50;5014520;28;20025;-69
2023/07/11 02:57:03;;;;;;;18.52;6.88;;;;;;;16.00;100.00;101353.06;5014527;28;20441;-67
2023/07/11 02:59:29;;;;;;;18.95;7.13;;;;;;;15.94;100.00;101353.13;5014525;28;20034;-69
2023/07/11 03:01:56;;;;;;;18.98;7.07;;;;;;;15.87;100.00;101346.06;5014456;28;20037;-70
2023/07/11 03:04:21;;;;;;;19.75;6.75;;;;;;;15.91;100.00;101342.47;5010589;28;20034;-69
2023/07/11 03:06:46;;;;;;;18.05;6.97;;;;;;;15.94;100.00;101342.44;5014775;28;20034;-69
2023/07/11 03:09:12;;;;;;;19.08;6.90;;;;;;;15.99;100.00;101334.44;5014276;28;20025;-68
2023/07/11 03:11:37;;;;;;;18.48;7.00;;;;;;;15.95;100.00;101328.22;5014636;28;20030;-61
2023/07/11 03:14:02;;;;;;;17.45;6.50;;;;;;;16.00;100.00;101330.84;5014200;28;20076;-60
2023/07/11 03:16:28;;;;;;;18.17;6.90;;;;;;;15.89;100.00;101325.63;5014430;28;20033;-70
2023/07/11 03:18:53;;;;;;;19.40;7.45;;;;;;;15.85;100.00;101326.56;5014238;28;20030;-61
2023/07/11 03:21:18;;;;;;;18.95;7.03;;;;;;;15.78;100.00;101319.47;5014068;28;20458;-69
2023/07/11 03:23:44;;;;;;;18.65;7.22;;;;;;;15.84;100.00;101320.34;5013916;28;20468;-69
2023/07/11 03:26:09;;;;;;;18.48;6.93;;;;;;;15.81;100.00;101324.81;5014136;28;20076;-68
2023/07/11 03:28:34;;;;;;;20.63;7.00;;;;;;;15.77;100.00;101321.28;5012997;28;20076;-69
2023/07/11 03:31:00;;;;;;;18.42;7.07;;;;;;;15.82;100.00;101315.94;5013676;28;20158;-69
2023/07/11 03:33:25;;;;;;;18.40;6.90;;;;;;;15.80;100.00;101312.38;5014027;28;20025;-61
2023/07/11 03:35:51;;;;;;;19.17;7.00;;;;;;;15.82;100.00;101313.25;5013818;28;20026;-69
2023/07/11 03:38:17;;;;;;;18.20;6.68;;;;;;;15.78;100.00;101309.72;5013895;28;20057;-69
2023/07/11 03:40:43;;;;;;;19.33;7.15;;;;;;;15.82;100.00;101310.59;5013923;28;20389;-68
2023/07/11 03:43:08;;;;;;;20.73;7.28;;;;;;;15.86;100.00;101307.00;5013729;28;20664;-68
2023/07/11 03:45:33;;;;;;;19.10;7.00;;;;;;;15.89;100.00;101314.06;5013805;28;20038;-69
2023/07/11 03:47:59;;;;;;;19.55;6.63;;;;;;;15.89;100.00;101312.31;5013756;28;20033;-68
2023/07/11 03:50:24;;;;;;;18.70;7.00;;;;;;;16.00;100.00;101304.19;5013597;28;20045;-69
2023/07/11 03:52:49;;;;;;;20.40;6.70;;;;;;;16.00;100.00;101307.75;5013636;28;20126;-68
2023/07/11 03:55:15;;;;;;;19.13;7.10;;;;;;;15.97;100.00;101305.09;5013412;28;20041;-68
2023/07/11 03:57:40;;;;;;;19.60;6.72;;;;;;;15.98;100.00;101308.66;5013399;28;20037;-69
2023/07/11 04:00:06;;;;;;;18.45;6.75;;;;;;;15.99;100.00;101311.31;5013435;28;20042;-67
2023/07/11 04:02:31;;;;;;;19.42;7.28;;;;;;;16.03;100.00;101304.16;5013331;28;20030;-69
2023/07/11 04:04:57;;;;;;;21.02;7.43;;;;;;;15.99;100.00;101297.97;5013548;28;20033;-66
2023/07/11 04:07:22;;;;;;;20.17;7.05;;;;;;;15.97;100.00;101288.22;5013454;28;20527;-69
2023/07/11 04:09:47;;;;;;;20.58;7.00;;;;;;;16.11;100.00;101291.63;5013197;28;20475;-69
2023/07/11 04:12:13;;;;;;;19.45;6.78;;;;;;;16.26;100.00;101284.34;5013162;28;20030;-68
2023/07/11 04:14:38;;;;;;;19.30;7.03;;;;;;;16.27;100.00;101294.13;4995786;28;20100;-69
2023/07/11 04:17:04;;;;;;;20.05;7.10;;;;;;;16.37;100.00;101293.09;5013188;28;20297;-69
2023/07/11 04:19:29;;;;;;;19.23;7.10;;;;;;;16.51;100.00;101284.91;5013184;28;20040;-69
2023/07/11 04:21:54;;;;;;;19.90;7.10;;;;;;;16.49;100.00;101281.38;5013262;28;20068;-68
2023/07/11 04:24:20;;;;;;;20.15;6.85;;;;;;;16.52;100.00;101282.22;5013004;28;20022;-68
2023/07/11 04:26:46;;;;;;;18.58;6.57;;;;;;;16.65;100.00;101274.03;5013259;28;20025;-69
2023/07/11 04:29:11;;;;;;;18.90;6.60;;;;;;;16.77;100.00;101279.19;5012911;28;20042;-69
2023/07/11 04:31:37;;;;;;;18.15;6.43;;;;;;;16.83;100.00;101280.91;5012706;28;20045;-69
2023/07/11 04:34:02;;;;;;;19.02;6.43;;;;;;;16.93;100.00;101279.88;5013108;28;20505;-69
2023/07/11 04:36:28;;;;;;;19.90;6.10;;;;;;;16.97;100.00;101267.38;5012859;28;20028;-71
2023/07/11 04:38:53;;;;;;;16.75;5.82;;;;;;;17.07;100.00;101264.53;5012795;28;20045;-70
2023/07/11 04:41:19;;;;;;;17.65;6.10;;;;;;;17.18;100.00;101266.16;5013017;28;20457;-70
2023/07/11 04:43:44;;;;;;;18.88;6.10;;;;;;;17.23;100.00;101269.63;4995293;28;20045;-70
2023/07/11 04:46:10;;;;;;;17.33;5.93;;;;;;;17.36;100.00;101265.84;5012807;28;20022;-70
2023/07/11 04:48:36;;;;;;;18.23;5.90;;;;;;;17.41;100.00;101255.06;5012928;28;20466;-70
2023/07/11 04:51:04;;;;;;;19.80;6.30;;;;;;;17.42;100.00;101263.06;5012764;28;20038;-70
2023/07/11 04:53:30;;;;;;;18.20;5.78;;;;;;;17.52;100.00;101260.25;5012639;28;20100;-70
2023/07/11 04:55:57;;;;;;;18.48;5.63;;;;;;;17.62;100.00;101260.94;5012903;28;20045;-70
2023/07/11 04:58:24;;;;;;;18.35;5.53;;;;;;;17.68;100.00;101256.38;5008871;28;20084;-70
2023/07/11 05:00:49;;;;;;;17.55;5.68;;;;;;;17.77;100.00;101250.84;5012621;28;20057;-71
2023/07/11 05:03:15;;;;;;;17.13;5.82;;;;;;;17.83;100.00;101248.97;5012766;28;20491;-70
2023/07/11 05:05:40;;;;;;;18.00;5.30;;;;;;;17.89;100.00;101251.53;5012864;28;20214;-70
2023/07/11 05:08:05;;;;;;;16.77;5.70;;;;;;;17.97;100.00;101244.28;5012574;28;20424;-69
2023/07/11 05:10:31;;;;;;;15.65;5.15;;;;;;;18.08;100.00;101244.91;5012992;28;20432;-70
2023/07/11 05:12:56;;;;;;;16.75;5.35;;;;;;;18.15;100.00;101240.31;5012503;28;20465;-70
2023/07/11 05:15:21;;;;;;;17.80;5.40;;;;;;;18.22;100.00;101238.41;5012738;28;20113;-71
2023/07/11 05:17:47;;;;;;;15.95;4.82;;;;;;;18.30;100.00;101233.75;5012521;28;20034;-70
2023/07/11 05:20:12;;;;;;;16.33;5.00;;;;;;;18.37;100.00;101234.53;5012425;28;20049;-70
2023/07/11 05:22:38;;;;;;;16.70;5.05;;;;;;;18.44;100.00;101231.66;5012619;28;20034;-70
2023/07/11 05:25:04;;;;;;;18.20;4.80;;;;;;;18.53;100.00;101227.03;5012335;28;20092;-68
2023/07/11 05:27:30;;;;;;;16.30;4.95;;;;;;;18.61;100.00;101233.97;5012282;28;20037;-68
2023/07/11 05:29:56;;;;;;;17.20;4.90;;;;;;;18.71;100.00;101231.06;5012544;28;20057;-68
2023/07/11 05:32:21;;;;;;;16.25;4.53;;;;;;;18.79;100.00;101229.09;5012391;28;20030;-69
2023/07/11 05:34:46;;;;;;;15.48;4.85;;;;;;;18.93;100.00;101223.44;5012575;28;20565;-68
2023/07/11 05:37:12;;;;;;;17.27;4.78;;;;;;;19.02;100.00;101216.97;5012393;28;20026;-69
2023/07/11 05:39:37;;;;;;;16.17;4.53;;;;;;;19.09;100.00;101224.84;4994777;28;20038;-69
2023/07/11 05:42:03;;;;;;;17.10;4.53;;;;;;;19.16;100.00;101220.19;5005316;28;20109;-68
2023/07/11 05:44:29;;;;;;;17.13;4.78;;;;;;;19.20;100.00;101215.63;5003862;28;20050;-68
2023/07/11 05:46:54;;;;;;;16.23;4.47;;;;;;;19.24;100.00;101222.69;5002892;28;20040;-68
2023/07/11 05:49:20;;;;;;;16.15;4.50;;;;;;;19.33;100.00;101211.72;5000966;28;20500;-64
2023/07/11 05:51:45;;;;;;;16.73;4.72;;;;;;;19.38;100.00;101214.28;5006364;28;20034;-70
2023/07/11 05:54:10;;;;;;;18.25;4.60;;;;;;;19.47;100.00;101214.91;5004066;28;20544;-62
2023/07/11 05:56:36;;;;;;;17.35;4.53;;;;;;;19.51;100.00;101211.22;5006610;28;20549;-71
2023/07/11 05:59:01;;;;;;;14.68;4.60;;;;;;;19.58;100.00;101219.09;5005227;28;20041;-68
2023/07/11 06:01:29;;;;;;;16.45;4.50;;;;;;;19.64;100.00;101200.16;5005351;28;20022;-69
2023/07/11 06:04:11;;;;;;;15.55;4.38;;;;;;;19.73;100.00;101202.59;5006501;28;20022;-64
2023/07/11 06:06:41;;;;;;;14.40;4.20;;;;;;;19.82;100.00;101205.03;5006708;28;20030;-65
2023/07/11 06:09:09;;;;;;;14.93;4.40;;;;;;;19.84;100.00;101199.63;5004274;28;20048;-70
2023/07/11 06:11:34;;;;;;;17.52;4.45;;;;;;;19.92;100.00;101188.66;5011105;28;20067;-71
2023/07/11 06:13:59;;;;;;;16.27;4.35;;;;;;;19.95;100.00;101184.13;4986648;28;20109;-68
2023/07/11 06:16:25;;;;;;;15.77;4.30;;;;;;;20.06;100.00;101185.59;5006537;28;20034;-73
2023/07/11 06:18:52;;;;;;;16.60;4.10;;;;;;;20.11;100.00;101189.00;5004913;28;20041;-69
2023/07/11 06:21:17;;;;;;;17.10;4.20;;;;;;;20.16;100.00;101187.94;5005217;28;20034;-75
2023/07/11 06:23:43;;;;;;;16.80;4.25;;;;;;;20.20;100.00;101192.28;5005907;28;20116;-74
2023/07/11 06:26:09;;;;;;;14.23;3.88;;;;;;;20.33;100.00;101192.81;5004082;28;20137;-70
2023/07/11 06:28:35;;;;;;;16.70;4.25;;;;;;;20.41;100.00;101197.06;5007054;28;20386;-69
2023/07/11 06:31:01;;;;;;;15.90;4.15;;;;;;;20.45;100.00;101191.53;5010517;28;20121;-73
2023/07/11 06:33:27;;;;;;;17.52;4.30;;;;;;;20.53;100.00;101193.97;5014775;28;20030;-75
2023/07/11 06:35:54;;;;;;;16.77;4.28;;;;;;;20.61;100.00;101194.63;5014960;28;20473;-71
2023/07/11 06:38:20;;;;;;;15.93;4.15;;;;;;;20.70;100.00;101188.09;5014621;28;20022;-70
2023/07/11 06:40:54;;;;;;;17.45;4.10;;;;;;;20.73;100.00;101194.25;5014741;28;20093;-71
2023/07/11 06:43:21;;;;;;;15.82;4.20;;;;;;;20.83;100.00;101183.22;5015086;28;20034;-69
2023/07/11 06:45:48;;;;;;;16.02;4.00;;;;;;;20.89;100.00;101185.69;5014749;28;20030;-66
2023/07/11 06:48:15;;;;;;;17.80;4.13;;;;;;;20.95;100.00;101187.28;5014491;28;20034;-68
2023/07/11 06:50:41;;;;;;;14.88;4.20;;;;;;;20.97;100.00;101178.25;5014751;28;20508;-69
2023/07/11 06:53:07;;;;;;;16.63;4.20;;;;;;;21.06;100.00;101190.50;5014256;28;20366;-69
2023/07/11 06:55:32;;;;;;;15.70;3.97;;;;;;;21.18;100.00;101186.50;5014295;28;20032;-70
2023/07/11 06:57:57;;;;;;;15.98;3.92;;;;;;;21.29;100.00;101181.66;5014580;28;20488;-69
2023/07/11 07:00:24;;;;;;;14.95;4.10;;;;;;;21.40;100.00;101182.13;5014110;28;20049;-69
2023/07/11 07:02:50;;;;;;;15.23;3.85;;;;;;;21.44;100.00;101177.53;5014186;28;20477;-67
2023/07/11 07:05:15;;;;;;;16.35;3.95;;;;;;;21.49;100.00;101172.84;4996743;28;20034;-67
2023/07/11 07:07:40;;;;;;;14.70;3.90;;;;;;;21.57;98.63;101175.31;5014223;28;20044;-69
2023/07/11 07:10:07;;;;;;;13.50;3.88;;;;;;;21.70;100.00;101183.81;5014093;28;20026;-66
2023/07/11 07:12:32;;;;;;;15.85;3.80;;;;;;;21.78;95.69;101179.00;5014207;28;20038;-66
2023/07/11 07:14:57;;;;;;;14.73;3.70;;;;;;;21.86;98.26;101176.94;5016871;28;20030;-66
2023/07/11 07:17:23;;;;;;;14.32;3.60;;;;;;;22.01;96.29;101182.66;5013855;28;20022;-64
2023/07/11 07:19:48;;;;;;;14.63;3.90;;;;;;;22.10;89.53;101185.00;5014094;28;20113;-66
2023/07/11 07:22:15;;;;;;;16.42;3.70;;;;;;;22.19;84.10;101190.03;5013981;28;20030;-68
2023/07/11 07:24:40;;;;;;;12.65;3.40;;;;;;;22.31;84.72;101174.31;5010220;28;20030;-63
2023/07/11 07:27:06;;;;;;;16.13;3.67;;;;;;;22.45;86.39;101174.69;5013916;28;20032;-61
2023/07/11 07:29:31;;;;;;;13.52;3.40;;;;;;;22.51;85.43;101174.44;4996146;28;20441;-68
2023/07/11 07:31:56;;;;;;;17.08;3.70;;;;;;;22.61;78.74;101173.13;5013762;28;20485;-67
2023/07/11 07:34:22;;;;;;;17.02;3.55;;;;;;;22.66;76.65;101172.94;4996081;28;20050;-68
2023/07/11 07:36:47;;;;;;;14.80;3.78;;;;;;;22.68;76.35;101171.06;5013925;28;20034;-66
2023/07/11 07:39:12;;;;;;;15.73;3.70;;;;;;;22.74;76.95;101170.78;5013651;28;20512;-65
2023/07/11 07:41:38;;;;;;;13.38;3.75;;;;;;;22.86;77.26;101168.53;5013522;28;20381;-66
2023/07/11 07:44:03;;;;;;;13.15;3.35;;;;;;;22.89;77.14;101171.09;5013543;28;20052;-65
2023/07/11 07:46:28;;;;;;;13.15;3.58;;;;;;;22.91;74.17;101156.63;5013253;28;20026;-66
2023/07/11 07:48:54;;;;;;;10.85;3.50;;;;;;;23.11;76.13;101155.81;5013401;28;20041;-65
2023/07/11 07:51:20;;;;;;;12.40;3.60;;;;;;;23.37;77.51;101148.38;5013313;28;20026;-66
2023/07/11 07:53:46;;;;;;;14.30;3.60;;;;;;;23.54;75.98;101142.22;5013504;28;20068;-65
2023/07/11 07:56:17;;;;;;;12.05;3.40;;;;;;;23.63;71.77;101143.63;5013244;28;20060;-62
2023/07/11 07:58:43;;;;;;;15.73;3.50;;;;;;;23.75;69.27;101143.09;5013127;28;20068;-61
2023/07/11 08:01:10;;;;;;;13.02;3.35;;;;;;;23.81;67.28;101144.63;5013591;28;20025;-62
2023/07/11 08:03:36;;;;;;;12.55;3.30;;;;;;;23.97;68.48;101142.09;5013516;28;20037;-64
2023/07/11 08:06:02;;;;;;;15.32;3.20;;;;;;;24.12;67.06;101141.38;4995861;28;20030;-62
2023/07/11 08:08:28;;;;;;;14.20;3.45;;;;;;;24.26;67.55;101138.03;5010774;28;20384;-70
2023/07/11 08:10:53;;;;;;;13.57;3.30;;;;;;;24.28;66.20;101136.13;5008446;28;20116;-63
2023/07/11 08:13:19;;;;;;;15.15;3.22;;;;;;;24.27;66.46;101134.34;5001126;28;20038;-61
2023/07/11 08:15:44;;;;;;;14.85;3.20;;;;;;;24.41;63.77;101136.41;5004829;28;20022;-61
2023/07/11 08:18:10;;;;;;;12.95;3.50;;;;;;;24.50;64.09;101135.06;5002438;28;20053;-60
2023/07/11 08:20:36;;;;;;;15.30;3.00;;;;;;;24.66;63.93;101136.06;5003349;28;20038;-73
2023/07/11 08:23:02;;;;;;;12.75;3.00;;;;;;;24.75;61.54;101136.56;5003635;28;20034;-73
2023/07/11 08:25:27;;;;;;;11.10;3.03;;;;;;;24.83;60.86;101131.66;4983356;28;20466;-73
2023/07/11 08:27:53;;;;;;;14.48;3.22;;;;;;;24.94;63.49;101131.97;5010864;28;20477;-68
2023/07/11 08:30:19;;;;;;;13.27;3.28;;;;;;;25.06;63.77;101136.75;4998581;28;20069;-74
2023/07/11 08:32:44;;;;;;;13.82;3.30;;;;;;;25.09;60.23;101141.13;4982107;28;20039;-68
2023/07/11 08:35:09;;;;;;;13.82;3.25;;;;;;;25.13;60.05;101128.31;4985309;28;20034;-67
2023/07/11 08:37:36;;;;;;;11.50;2.90;;;;;;;25.18;60.87;101134.38;4982916;28;20030;-68
2023/07/11 08:40:03;;;;;;;13.90;3.20;;;;;;;25.25;62.61;101130.34;4965943;28;20049;-64
2023/07/11 08:42:40;;;;;;;13.73;3.20;;;;;;;25.42;61.54;101136.75;4985152;28;20056;-68
2023/07/11 08:45:21;;;;;;;12.27;2.92;;;;;;;25.65;59.72;101122.84;4982835;28;20018;-65
2023/07/11 08:48:02;;;;;;;10.80;3.00;;;;;;;25.80;59.40;101126.53;4989641;28;20056;-62
2023/07/11 08:50:36;;;;;;;13.95;3.40;;;;;;;25.92;58.95;101125.88;4990972;28;20030;-67
2023/07/11 08:53:13;;;;;;;12.13;2.97;;;;;;;25.70;58.55;101123.50;4992983;28;20109;-66
2023/07/11 08:55:44;;;;;;;12.95;3.10;;;;;;;25.81;58.75;101125.59;4993024;28;20377;-68
2023/07/11 08:58:17;;;;;;;14.23;3.38;;;;;;;25.86;57.62;101123.50;4993134;28;20088;-65
2023/07/11 09:00:47;;;;;;;13.15;2.92;;;;;;;25.85;57.06;101126.31;4988966;28;20037;-66
2023/07/11 09:03:29;;;;;;;14.85;3.15;;;;;;;25.81;57.84;101112.06;4984586;28;20077;-61
2023/07/11 09:06:06;;;;;;;12.18;3.13;;;;;;;25.94;58.81;101128.50;4983447;28;20037;-63
2023/07/11 09:08:35;;;;;;;14.05;3.17;;;;;;;25.85;56.97;101123.59;4964434;28;20035;-60
2023/07/11 09:11:29;;;;;;;12.05;3.00;;;;;;;25.97;58.67;101112.06;4984189;28;20498;-62
2023/07/11 09:14:02;;;;;;;13.48;3.20;;;;;;;26.07;57.18;101113.34;4990952;28;20086;-61
2023/07/11 09:16:35;;;;;;;14.98;3.10;;;;;;;25.98;56.58;101112.94;4993227;28;20378;-61
2023/07/11 09:19:16;;;;;;;12.35;3.20;;;;;;;26.07;55.89;101105.19;4992811;28;20501;-60
2023/07/11 09:22:14;;;;;;;16.05;3.35;;;;;;;26.34;56.74;101107.28;4989272;28;20062;-61
2023/07/11 09:24:55;;;;;;;15.50;3.28;;;;;;;26.74;54.99;101115.81;4992663;28;20030;-62
2023/07/11 09:27:26;;;;;;;14.03;3.40;;;;;;;26.67;55.95;101108.13;4990331;28;20030;-69
2023/07/11 09:29:53;;;;;;;12.05;3.30;;;;;;;26.89;54.01;101102.31;4998570;28;20289;-66
2023/07/11 09:32:20;;;;;;;15.40;3.30;;;;;;;26.90;55.23;101093.22;5015775;28;20034;-71
2023/07/11 09:34:49;;;;;;;13.70;3.35;;;;;;;27.06;54.90;101099.47;5015546;28;20023;-62
2023/07/11 09:37:53;;;;;;;16.52;3.33;;;;;;;27.26;54.46;101081.06;5009957;28;20022;-67
2023/07/11 09:40:39;;;;;;;15.93;3.33;;;;;;;27.19;54.51;101102.28;4922602;29;20184;-68
2023/07/11 09:43:04;;;;;;;14.25;3.20;;;;;;;27.31;54.33;101097.94;4999782;28;20046;-68
2023/07/11 09:45:36;;;;;;;15.20;3.40;;;;;;;27.30;51.99;101101.63;5007693;28;20030;-67
2023/07/11 09:48:05;;;;;;;15.67;3.30;;;;;;;27.12;54.03;101092.78;5012170;28;20065;-67
2023/07/11 09:50:59;;;;;;;15.85;3.42;;;;;;;27.35;53.63;101099.53;5012350;28;20083;-64
2023/07/11 09:53:28;;;;;;;11.13;3.28;;;;;;;27.36;50.93;101092.25;5009090;28;20042;-68
2023/07/11 09:55:58;;;;;;;14.73;3.60;;;;;;;27.64;52.78;101078.69;5016100;28;20105;-68
2023/07/11 09:58:28;;;;;;;13.63;3.35;;;;;;;27.69;51.86;101091.97;5016013;28;20022;-68
2023/07/11 10:00:54;;;;;;;14.70;3.40;;;;;;;27.66;49.50;101092.16;5010806;28;20030;-67
2023/07/11 10:03:22;;;;;;;16.02;3.30;;;;;;;27.36;51.75;101093.13;5007424;28;20034;-69
2023/07/11 10:05:50;;;;;;;14.75;3.30;;;;;;;27.34;51.01;101083.34;5012019;28;20049;-65
2023/07/11 10:08:22;;;;;;;14.75;3.60;;;;;;;28.02;49.79;101082.66;5003899;28;20083;-68
2023/07/11 10:10:51;;;;;;;14.82;3.50;;;;;;;28.25;48.16;101072.09;5009205;28;20106;-69
2023/07/11 10:13:17;;;;;;;14.95;3.33;;;;;;;28.14;49.38;101081.81;5015723;28;20026;-66
2023/07/11 10:15:46;;;;;;;15.27;3.60;;;;;;;28.83;47.70;101081.78;5017733;28;20033;-61
2023/07/11 10:18:17;;;;;;;15.00;3.20;;;;;;;29.42;46.37;101077.69;4981957;28;20477;-66
2023/07/11 10:20:45;;;;;;;17.83;3.75;;;;;;;30.01;45.78;101081.63;5014271;28;20033;-65
2023/07/11 10:23:13;;;;;;;14.38;3.40;;;;;;;30.53;44.04;101080.47;5015771;28;20056;-68
2023/07/11 10:25:43;;;;;;;15.48;3.33;;;;;;;30.72;43.54;101079.06;5014390;28;20028;-60
2023/07/11 10:28:40;;;;;;;14.10;3.55;;;;;;;31.84;43.95;101068.47;5015321;28;20030;-66
2023/07/11 10:31:17;;;;;;;15.95;3.55;;;;;;;31.12;42.80;101067.81;4990328;28;20052;-65
2023/07/11 10:33:51;;;;;;;14.25;3.47;;;;;;;29.86;44.28;101072.75;5012370;28;20045;-63
2023/07/11 10:36:21;;;;;;;16.33;3.45;;;;;;;29.02;46.19;101061.44;5014550;28;20115;-65
2023/07/11 10:38:55;;;;;;;15.02;3.55;;;;;;;28.63;45.71;101072.25;5015284;28;20392;-60
2023/07/11 10:41:43;;;;;;;14.80;3.50;;;;;;;29.76;46.32;101058.03;5015048;28;20041;-60
2023/07/11 10:44:17;;;;;;;14.77;3.50;;;;;;;31.09;42.76;101068.91;5011670;28;20580;-63
2023/07/11 10:46:47;;;;;;;14.10;3.67;;;;;;;31.81;40.78;101053.19;5014789;28;20049;-61
2023/07/11 10:49:20;;;;;;;12.45;3.38;;;;;;;31.52;41.33;101061.00;5014696;28;20075;-66
2023/07/11 10:51:49;;;;;;;14.07;3.47;;;;;;;30.89;42.27;101039.56;5014734;28;20057;-61
2023/07/11 10:54:41;;;;;;;15.40;3.72;;;;;;;30.79;41.05;101033.94;5014630;28;20029;-61
2023/07/11 10:57:15;;;;;;;13.05;3.40;;;;;;;30.25;41.22;101049.81;5010980;28;20397;-65
2023/07/11 10:59:41;;;;;;;13.43;3.42;;;;;;;30.14;42.73;101041.59;5014656;28;20030;-65
2023/07/11 11:02:22;;;;;;;15.15;3.60;;;;;;;29.99;43.42;101049.06;5012761;28;20026;-69
2023/07/11 11:05:25;;;;;;;14.55;3.40;;;;;;;30.43;43.97;101042.13;5018320;28;20111;-67
2023/07/11 11:08:37;;;;;;;13.10;3.40;;;;;;;31.65;41.56;101039.91;5011994;28;20038;-61
2023/07/11 11:11:17;;;;;;;12.45;3.28;;;;;;;31.51;39.42;101035.53;4988644;28;20056;-67
2023/07/11 11:13:47;;;;;;;14.75;3.53;;;;;;;32.33;38.71;101021.50;5003417;28;20018;-64
2023/07/11 11:16:24;;;;;;;14.30;3.30;;;;;;;32.57;38.57;101023.13;5005337;28;20064;-63